sensor_id;sensor_type;location;lat;lon;timestamp;temperature;humidity
11908;DHT22;6014;47.690;9.130;2022-08-25T08:53:54;27.30;54.40
11908;DHT22;6014;47.690;9.130;2022-08-25T08:56:26;25.30;99.90
11908;DHT22;6014;47.690;9.130;2022-08-25T08:58:58;25.10;99.90
11908;DHT22;6014;47.690;9.130;2022-08-25T09:01:37;25.80;99.90
11908;DHT22;6014;47.690;9.130;2022-08-25T09:04:12;25.20;99.90
11908;DHT22;6014;47.690;9.130;2022-08-25T09:06:43;25.30;99.90
11908;DHT22;6014;47.690;9.130;2022-08-25T09:09:17;25.40;99.90
11908;DHT22;6014;47.690;9.130;2022-08-25T09:11:56;25.50;99.90
11908;DHT22;6014;47.690;9.130;2022-08-25T09:14:41;25.30;99.90
11908;DHT22;6014;47.690;9.130;2022-08-25T09:40:52;26.00;99.90
11908;DHT22;6014;47.690;9.130;2022-08-25T09:43:23;26.90;99.90
11908;DHT22;6014;47.690;9.130;2022-08-25T09:45:59;27.20;98.80
11908;DHT22;6014;47.690;9.130;2022-08-25T09:48:30;27.40;98.40
11908;DHT22;6014;47.690;9.130;2022-08-25T09:51:15;27.10;98.10
11908;DHT22;6014;47.690;9.130;2022-08-25T09:56:20;26.50;99.10
11908;DHT22;6014;47.690;9.130;2022-08-25T09:58:49;26.00;99.90
11908;DHT22;6014;47.690;9.130;2022-08-25T10:01:19;25.80;99.90
11908;DHT22;6014;47.690;9.130;2022-08-25T10:03:59;26.10;99.90
11908;DHT22;6014;47.690;9.130;2022-08-25T10:06:33;25.90;99.90
11908;DHT22;6014;47.690;9.130;2022-08-25T10:09:05;27.10;99.90
11908;DHT22;6014;47.690;9.130;2022-08-25T10:11:40;27.40;98.50
11908;DHT22;6014;47.690;9.130;2022-08-25T10:14:25;27.90;96.90
11908;DHT22;6014;47.690;9.130;2022-08-25T10:17:14;28.10;97.40
11908;DHT22;6014;47.690;9.130;2022-08-25T10:19:43;28.50;93.30
11908;DHT22;6014;47.690;9.130;2022-08-25T11:01:30;28.60;93.50
11908;DHT22;6014;47.690;9.130;2022-08-25T11:04:13;28.90;84.10
11908;DHT22;6014;47.690;9.130;2022-08-25T11:06:48;29.50;85.40
11908;DHT22;6014;47.690;9.130;2022-08-25T12:45:43;29.70;84.60
11908;DHT22;6014;47.690;9.130;2022-08-25T13:07:11;31.40;53.50
11908;DHT22;6014;47.690;9.130;2022-08-25T13:10:15;31.30;57.60
11908;DHT22;6014;47.690;9.130;2022-08-25T13:12:50;31.00;59.10
11908;DHT22;6014;47.690;9.130;2022-08-25T13:15:32;31.40;59.20
11908;DHT22;6014;47.690;9.130;2022-08-25T13:18:18;31.40;56.20
11908;DHT22;6014;47.690;9.130;2022-08-25T13:20:49;31.30;57.60
11908;DHT22;6014;47.690;9.130;2022-08-25T13:23:27;30.30;57.50
11908;DHT22;6014;47.690;9.130;2022-08-25T13:25:57;30.40;56.90
11908;DHT22;6014;47.690;9.130;2022-08-25T13:28:29;29.70;58.80
11908;DHT22;6014;47.690;9.130;2022-08-25T13:31:03;30.10;58.10
11908;DHT22;6014;47.690;9.130;2022-08-25T13:33:33;30.30;54.60
11908;DHT22;6014;47.690;9.130;2022-08-25T13:36:03;30.10;55.10
11908;DHT22;6014;47.690;9.130;2022-08-25T13:39:10;29.60;55.60
11908;DHT22;6014;47.690;9.130;2022-08-25T13:41:48;30.60;57.40
11908;DHT22;6014;47.690;9.130;2022-08-25T13:44:23;30.70;54.40
11908;DHT22;6014;47.690;9.130;2022-08-25T13:47:05;30.50;55.30
11908;DHT22;6014;47.690;9.130;2022-08-25T13:49:35;31.20;53.70
11908;DHT22;6014;47.690;9.130;2022-08-25T13:52:04;31.00;52.30
11908;DHT22;6014;47.690;9.130;2022-08-25T13:54:36;30.50;52.10
11908;DHT22;6014;47.690;9.130;2022-08-25T13:57:15;30.60;51.60
11908;DHT22;6014;47.690;9.130;2022-08-25T13:59:49;30.70;50.20
11908;DHT22;6014;47.690;9.130;2022-08-25T14:02:39;31.00;50.60
11908;DHT22;6014;47.690;9.130;2022-08-25T14:05:11;31.40;50.10
11908;DHT22;6014;47.690;9.130;2022-08-25T14:07:40;31.10;49.10
11908;DHT22;6014;47.690;9.130;2022-08-25T14:10:41;31.90;47.90
11908;DHT22;6014;47.690;9.130;2022-08-25T14:13:14;32.30;45.70
11908;DHT22;6014;47.690;9.130;2022-08-25T14:15:45;32.40;44.40
11908;DHT22;6014;47.690;9.130;2022-08-25T14:18:17;32.00;43.00
11908;DHT22;6014;47.690;9.130;2022-08-25T14:20:54;32.10;37.10
11908;DHT22;6014;47.690;9.130;2022-08-25T14:23:24;31.90;36.30
11908;DHT22;6014;47.690;9.130;2022-08-25T14:25:55;32.40;38.90
11908;DHT22;6014;47.690;9.130;2022-08-25T14:28:27;32.30;39.40
11908;DHT22;6014;47.690;9.130;2022-08-25T14:30:59;31.50;38.30
11908;DHT22;6014;47.690;9.130;2022-08-25T14:33:38;32.00;38.60
11908;DHT22;6014;47.690;9.130;2022-08-25T14:36:07;31.60;38.50
11908;DHT22;6014;47.690;9.130;2022-08-25T14:38:36;32.30;39.90
11908;DHT22;6014;47.690;9.130;2022-08-25T14:41:09;32.00;36.90
11908;DHT22;6014;47.690;9.130;2022-08-25T14:43:39;32.10;38.50
11908;DHT22;6014;47.690;9.130;2022-08-25T14:46:11;31.80;39.10
11908;DHT22;6014;47.690;9.130;2022-08-25T14:48:43;31.40;39.70
11908;DHT22;6014;47.690;9.130;2022-08-25T14:51:14;31.60;40.10
11908;DHT22;6014;47.690;9.130;2022-08-25T14:53:43;32.00;39.90
11908;DHT22;6014;47.690;9.130;2022-08-25T14:56:11;31.80;38.50
11908;DHT22;6014;47.690;9.130;2022-08-25T14:58:47;32.00;38.60
11908;DHT22;6014;47.690;9.130;2022-08-25T15:01:22;31.50;39.50
11908;DHT22;6014;47.690;9.130;2022-08-25T15:03:57;31.80;39.60
11908;DHT22;6014;47.690;9.130;2022-08-25T15:06:28;32.30;40.00
11908;DHT22;6014;47.690;9.130;2022-08-25T15:08:57;32.70;40.20
11908;DHT22;6014;47.690;9.130;2022-08-25T15:11:42;32.50;38.80
11908;DHT22;6014;47.690;9.130;2022-08-25T15:14:13;32.60;39.60
11908;DHT22;6014;47.690;9.130;2022-08-25T15:16:45;32.20;40.40
11908;DHT22;6014;47.690;9.130;2022-08-25T15:19:17;32.10;39.20
11908;DHT22;6014;47.690;9.130;2022-08-25T15:21:46;32.70;38.80
11908;DHT22;6014;47.690;9.130;2022-08-25T15:24:16;32.50;40.10
11908;DHT22;6014;47.690;9.130;2022-08-25T15:26:49;32.10;40.70
11908;DHT22;6014;47.690;9.130;2022-08-25T15:29:23;31.80;41.00
11908;DHT22;6014;47.690;9.130;2022-08-25T15:31:53;31.60;40.80
11908;DHT22;6014;47.690;9.130;2022-08-25T15:34:21;31.80;43.20
11908;DHT22;6014;47.690;9.130;2022-08-25T15:36:49;31.60;42.00
11908;DHT22;6014;47.690;9.130;2022-08-25T15:39:18;31.40;42.70
11908;DHT22;6014;47.690;9.130;2022-08-25T15:41:47;31.60;42.00
11908;DHT22;6014;47.690;9.130;2022-08-25T15:44:18;32.10;41.80
11908;DHT22;6014;47.690;9.130;2022-08-25T15:46:47;31.90;42.50
11908;DHT22;6014;47.690;9.130;2022-08-25T15:49:16;31.40;42.20
11908;DHT22;6014;47.690;9.130;2022-08-25T15:51:49;31.20;44.80
11908;DHT22;6014;47.690;9.130;2022-08-25T15:54:18;31.40;44.00
11908;DHT22;6014;47.690;9.130;2022-08-25T15:56:47;31.00;44.30
11908;DHT22;6014;47.690;9.130;2022-08-25T15:59:15;31.00;43.90
11908;DHT22;6014;47.690;9.130;2022-08-25T16:01:49;30.80;46.20
11908;DHT22;6014;47.690;9.130;2022-08-25T16:04:19;30.60;45.50
11908;DHT22;6014;47.690;9.130;2022-08-25T16:06:49;30.70;46.70
11908;DHT22;6014;47.690;9.130;2022-08-25T16:09:17;30.90;46.20
11908;DHT22;6014;47.690;9.130;2022-08-25T16:11:49;31.40;44.90
11908;DHT22;6014;47.690;9.130;2022-08-25T16:14:24;31.60;45.40
11908;DHT22;6014;47.690;9.130;2022-08-25T16:16:55;31.90;44.60
11908;DHT22;6014;47.690;9.130;2022-08-25T16:19:25;32.20;45.30
11908;DHT22;6014;47.690;9.130;2022-08-25T16:21:54;31.60;45.30
11908;DHT22;6014;47.690;9.130;2022-08-25T16:24:22;31.90;45.70
11908;DHT22;6014;47.690;9.130;2022-08-25T16:26:51;31.50;43.10
11908;DHT22;6014;47.690;9.130;2022-08-25T16:29:21;31.80;41.70
11908;DHT22;6014;47.690;9.130;2022-08-25T16:31:49;31.80;41.70
11908;DHT22;6014;47.690;9.130;2022-08-25T16:34:22;31.60;41.50
11908;DHT22;6014;47.690;9.130;2022-08-25T16:36:56;31.50;43.90
11908;DHT22;6014;47.690;9.130;2022-08-25T16:39:25;31.60;42.90
11908;DHT22;6014;47.690;9.130;2022-08-25T16:41:53;31.80;44.10
11908;DHT22;6014;47.690;9.130;2022-08-25T16:44:21;31.80;43.50
11908;DHT22;6014;47.690;9.130;2022-08-25T16:46:51;31.60;45.40
11908;DHT22;6014;47.690;9.130;2022-08-25T16:49:23;31.40;45.30
11908;DHT22;6014;47.690;9.130;2022-08-25T16:51:52;31.40;45.80
11908;DHT22;6014;47.690;9.130;2022-08-25T16:54:24;31.40;46.00
11908;DHT22;6014;47.690;9.130;2022-08-25T16:57:11;31.20;45.60
11908;DHT22;6014;47.690;9.130;2022-08-25T16:59:40;31.30;45.20
11908;DHT22;6014;47.690;9.130;2022-08-25T17:02:09;31.30;44.90
11908;DHT22;6014;47.690;9.130;2022-08-25T17:04:40;30.80;42.30
11908;DHT22;6014;47.690;9.130;2022-08-25T17:07:08;30.70;42.60
11908;DHT22;6014;47.690;9.130;2022-08-25T17:09:36;30.10;45.00
11908;DHT22;6014;47.690;9.130;2022-08-25T17:12:06;29.40;48.70
11908;DHT22;6014;47.690;9.130;2022-08-25T17:14:35;28.70;51.20
11908;DHT22;6014;47.690;9.130;2022-08-25T17:17:03;28.20;52.60
11908;DHT22;6014;47.690;9.130;2022-08-25T17:19:33;27.90;55.10
11908;DHT22;6014;47.690;9.130;2022-08-25T17:22:05;27.60;58.10
11908;DHT22;6014;47.690;9.130;2022-08-25T17:24:34;27.40;59.60
11908;DHT22;6014;47.690;9.130;2022-08-25T17:27:06;27.10;63.40
11908;DHT22;6014;47.690;9.130;2022-08-25T17:29:34;26.80;66.80
11908;DHT22;6014;47.690;9.130;2022-08-25T17:32:03;26.70;67.90
11908;DHT22;6014;47.690;9.130;2022-08-25T17:34:32;26.40;70.50
11908;DHT22;6014;47.690;9.130;2022-08-25T17:37:03;26.20;72.80
11908;DHT22;6014;47.690;9.130;2022-08-25T17:42:03;26.00;74.60
11908;DHT22;6014;47.690;9.130;2022-08-25T17:44:36;25.60;81.50
11908;DHT22;6014;47.690;9.130;2022-08-25T17:47:05;25.30;90.30
11908;DHT22;6014;47.690;9.130;2022-08-25T17:49:36;25.10;96.20
11908;DHT22;6014;47.690;9.130;2022-08-25T17:52:06;24.90;99.90
11908;DHT22;6014;47.690;9.130;2022-08-25T18:52:36;24.70;99.90
11908;DHT22;6014;47.690;9.130;2022-08-25T18:55:07;21.40;99.90
11908;DHT22;6014;47.690;9.130;2022-08-25T19:02:38;21.20;99.90
